sensor_id;sensor_type;location;lat;lon;timestamp;P1;durP1;ratioP1;P2;durP2;ratioP2
11171;SDS011;5642;50.830;12.082;2023-05-18T00:01:30;1.00;;;0.90;;
11171;SDS011;5642;50.830;12.082;2023-05-18T00:03:58;1.40;;;1.30;;
11171;SDS011;5642;50.830;12.082;2023-05-18T00:06:26;1.40;;;1.10;;
11171;SDS011;5642;50.830;12.082;2023-05-18T00:08:53;2.25;;;1.40;;
11171;SDS011;5642;50.830;12.082;2023-05-18T00:11:29;1.42;;;1.10;;
11171;SDS011;5642;50.830;12.082;2023-05-18T00:14:02;1.25;;;1.05;;
11171;SDS011;5642;50.830;12.082;2023-05-18T00:16:40;1.50;;;1.13;;
11171;SDS011;5642;50.830;12.082;2023-05-18T00:19:10;1.13;;;0.90;;
11171;SDS011;5642;50.830;12.082;2023-05-18T00:21:41;1.40;;;1.20;;
11171;SDS011;5642;50.830;12.082;2023-05-18T00:24:12;1.95;;;1.15;;
11171;SDS011;5642;50.830;12.082;2023-05-18T00:26:41;1.77;;;1.05;;
11171;SDS011;5642;50.830;12.082;2023-05-18T00:29:10;1.20;;;1.00;;
11171;SDS011;5642;50.830;12.082;2023-05-18T00:31:38;1.15;;;1.02;;
11171;SDS011;5642;50.830;12.082;2023-05-18T00:34:08;1.70;;;0.95;;
11171;SDS011;5642;50.830;12.082;2023-05-18T00:36:37;1.48;;;1.30;;
11171;SDS011;5642;50.830;12.082;2023-05-18T00:39:04;0.95;;;0.93;;
11171;SDS011;5642;50.830;12.082;2023-05-18T00:41:32;1.58;;;0.98;;
11171;SDS011;5642;50.830;12.082;2023-05-18T00:43:59;1.23;;;1.13;;
11171;SDS011;5642;50.830;12.082;2023-05-18T00:46:29;1.45;;;1.13;;
11171;SDS011;5642;50.830;12.082;2023-05-18T00:48:57;1.20;;;1.10;;
11171;SDS011;5642;50.830;12.082;2023-05-18T00:51:27;1.17;;;1.10;;
11171;SDS011;5642;50.830;12.082;2023-05-18T00:53:58;0.85;;;0.85;;
11171;SDS011;5642;50.830;12.082;2023-05-18T00:56:27;1.27;;;1.00;;
11171;SDS011;5642;50.830;12.082;2023-05-18T00:59:00;1.20;;;1.10;;
11171;SDS011;5642;50.830;12.082;2023-05-18T01:01:30;1.48;;;0.95;;
11171;SDS011;5642;50.830;12.082;2023-05-18T01:04:02;1.30;;;1.13;;
11171;SDS011;5642;50.830;12.082;2023-05-18T01:06:37;1.48;;;0.90;;
11171;SDS011;5642;50.830;12.082;2023-05-18T01:09:10;1.10;;;1.10;;
11171;SDS011;5642;50.830;12.082;2023-05-18T01:14:58;1.00;;;0.95;;
11171;SDS011;5642;50.830;12.082;2023-05-18T01:20:48;1.02;;;0.90;;
11171;SDS011;5642;50.830;12.082;2023-05-18T01:23:40;1.02;;;0.90;;
11171;SDS011;5642;50.830;12.082;2023-05-18T01:26:37;1.88;;;1.00;;
11171;SDS011;5642;50.830;12.082;2023-05-18T01:29:29;1.17;;;0.98;;
11171;SDS011;5642;50.830;12.082;2023-05-18T01:32:18;1.08;;;1.00;;
11171;SDS011;5642;50.830;12.082;2023-05-18T01:35:06;0.90;;;0.90;;
11171;SDS011;5642;50.830;12.082;2023-05-18T01:37:37;2.00;;;1.20;;
11171;SDS011;5642;50.830;12.082;2023-05-18T01:40:13;1.73;;;0.70;;
11171;SDS011;5642;50.830;12.082;2023-05-18T01:42:59;2.03;;;0.93;;
11171;SDS011;5642;50.830;12.082;2023-05-18T01:45:53;1.42;;;1.10;;
11171;SDS011;5642;50.830;12.082;2023-05-18T01:48:43;1.17;;;1.02;;
11171;SDS011;5642;50.830;12.082;2023-05-18T01:51:35;1.45;;;1.00;;
11171;SDS011;5642;50.830;12.082;2023-05-18T01:54:26;1.38;;;0.95;;
11171;SDS011;5642;50.830;12.082;2023-05-18T01:57:12;1.13;;;1.00;;
11171;SDS011;5642;50.830;12.082;2023-05-18T03:01:22;1.92;;;1.42;;
11171;SDS011;5642;50.830;12.082;2023-05-18T03:03:52;4.07;;;1.90;;
11171;SDS011;5642;50.830;12.082;2023-05-18T03:06:19;2.90;;;1.73;;
11171;SDS011;5642;50.830;12.082;2023-05-18T03:08:51;1.35;;;1.20;;
11171;SDS011;5642;50.830;12.082;2023-05-18T03:11:22;1.55;;;1.30;;
11171;SDS011;5642;50.830;12.082;2023-05-18T03:13:48;2.00;;;1.40;;
11171;SDS011;5642;50.830;12.082;2023-05-18T03:16:14;2.20;;;2.00;;
11171;SDS011;5642;50.830;12.082;2023-05-18T03:18:40;1.60;;;1.50;;
11171;SDS011;5642;50.830;12.082;2023-05-18T03:21:07;2.25;;;1.70;;
11171;SDS011;5642;50.830;12.082;2023-05-18T03:23:33;2.17;;;1.50;;
11171;SDS011;5642;50.830;12.082;2023-05-18T03:25:59;2.15;;;1.30;;
11171;SDS011;5642;50.830;12.082;2023-05-18T03:28:27;2.08;;;1.52;;
11171;SDS011;5642;50.830;12.082;2023-05-18T03:30:56;2.55;;;1.70;;
11171;SDS011;5642;50.830;12.082;2023-05-18T03:33:22;2.63;;;2.30;;
11171;SDS011;5642;50.830;12.082;2023-05-18T03:35:48;3.45;;;2.67;;
11171;SDS011;5642;50.830;12.082;2023-05-18T03:38:14;3.25;;;2.03;;
11171;SDS011;5642;50.830;12.082;2023-05-18T03:40:40;3.67;;;1.85;;
11171;SDS011;5642;50.830;12.082;2023-05-18T03:43:06;2.15;;;1.60;;
11171;SDS011;5642;50.830;12.082;2023-05-18T03:45:33;1.65;;;1.40;;
11171;SDS011;5642;50.830;12.082;2023-05-18T03:47:59;1.15;;;1.10;;
11171;SDS011;5642;50.830;12.082;2023-05-18T03:50:25;1.63;;;1.20;;
11171;SDS011;5642;50.830;12.082;2023-05-18T03:52:53;1.48;;;1.10;;
11171;SDS011;5642;50.830;12.082;2023-05-18T03:55:20;1.40;;;1.30;;
11171;SDS011;5642;50.830;12.082;2023-05-18T03:57:49;1.92;;;1.15;;
11171;SDS011;5642;50.830;12.082;2023-05-18T04:00:15;1.90;;;1.25;;
11171;SDS011;5642;50.830;12.082;2023-05-18T04:02:42;2.58;;;1.30;;
11171;SDS011;5642;50.830;12.082;2023-05-18T04:05:08;1.17;;;0.98;;
11171;SDS011;5642;50.830;12.082;2023-05-18T04:07:34;1.27;;;0.90;;
11171;SDS011;5642;50.830;12.082;2023-05-18T04:10:11;1.40;;;1.20;;
11171;SDS011;5642;50.830;12.082;2023-05-18T04:12:41;1.20;;;1.10;;
11171;SDS011;5642;50.830;12.082;2023-05-18T04:15:07;1.25;;;1.10;;
11171;SDS011;5642;50.830;12.082;2023-05-18T04:17:34;1.77;;;1.10;;
11171;SDS011;5642;50.830;12.082;2023-05-18T04:20:00;1.10;;;1.00;;
11171;SDS011;5642;50.830;12.082;2023-05-18T04:22:41;1.10;;;1.00;;
11171;SDS011;5642;50.830;12.082;2023-05-18T04:25:08;1.52;;;1.15;;
11171;SDS011;5642;50.830;12.082;2023-05-18T04:27:38;1.20;;;1.00;;
11171;SDS011;5642;50.830;12.082;2023-05-18T04:30:10;1.17;;;1.10;;
11171;SDS011;5642;50.830;12.082;2023-05-18T04:32:37;1.30;;;1.20;;
11171;SDS011;5642;50.830;12.082;2023-05-18T04:35:07;1.58;;;1.20;;
11171;SDS011;5642;50.830;12.082;2023-05-18T04:37:35;1.27;;;1.17;;
11171;SDS011;5642;50.830;12.082;2023-05-18T04:40:05;1.08;;;1.08;;
11171;SDS011;5642;50.830;12.082;2023-05-18T04:42:33;1.30;;;1.20;;
11171;SDS011;5642;50.830;12.082;2023-05-18T04:45:00;1.02;;;0.88;;
11171;SDS011;5642;50.830;12.082;2023-05-18T04:47:27;0.90;;;0.90;;
11171;SDS011;5642;50.830;12.082;2023-05-18T04:49:54;0.98;;;0.90;;
11171;SDS011;5642;50.830;12.082;2023-05-18T04:52:21;1.48;;;1.38;;
11171;SDS011;5642;50.830;12.082;2023-05-18T04:54:47;1.13;;;1.00;;
11171;SDS011;5642;50.830;12.082;2023-05-18T04:57:13;1.10;;;1.00;;
11171;SDS011;5642;50.830;12.082;2023-05-18T06:01:09;0.85;;;0.70;;
11171;SDS011;5642;50.830;12.082;2023-05-18T06:03:41;0.95;;;0.73;;
11171;SDS011;5642;50.830;12.082;2023-05-18T06:06:09;1.20;;;0.82;;
11171;SDS011;5642;50.830;12.082;2023-05-18T06:08:35;1.42;;;0.80;;
11171;SDS011;5642;50.830;12.082;2023-05-18T06:11:02;0.90;;;0.68;;
11171;SDS011;5642;50.830;12.082;2023-05-18T06:13:28;3.10;;;0.90;;
11171;SDS011;5642;50.830;12.082;2023-05-18T06:15:54;0.93;;;0.60;;
11171;SDS011;5642;50.830;12.082;2023-05-18T06:18:21;1.00;;;0.65;;
11171;SDS011;5642;50.830;12.082;2023-05-18T06:20:51;0.82;;;0.73;;
11171;SDS011;5642;50.830;12.082;2023-05-18T06:23:17;1.02;;;0.77;;
11171;SDS011;5642;50.830;12.082;2023-05-18T06:25:48;1.80;;;0.50;;
11171;SDS011;5642;50.830;12.082;2023-05-18T06:28:15;1.55;;;0.60;;
11171;SDS011;5642;50.830;12.082;2023-05-18T06:30:41;1.92;;;1.00;;
11171;SDS011;5642;50.830;12.082;2023-05-18T06:33:08;1.13;;;0.80;;
11171;SDS011;5642;50.830;12.082;2023-05-18T06:35:34;0.65;;;0.60;;
11171;SDS011;5642;50.830;12.082;2023-05-18T06:38:01;1.17;;;0.80;;
11171;SDS011;5642;50.830;12.082;2023-05-18T06:40:27;1.50;;;0.75;;
11171;SDS011;5642;50.830;12.082;2023-05-18T06:42:53;1.25;;;0.98;;
11171;SDS011;5642;50.830;12.082;2023-05-18T06:45:19;2.60;;;1.00;;
11171;SDS011;5642;50.830;12.082;2023-05-18T06:47:51;1.13;;;0.90;;
11171;SDS011;5642;50.830;12.082;2023-05-18T06:50:17;0.80;;;0.80;;
11171;SDS011;5642;50.830;12.082;2023-05-18T06:52:43;0.70;;;0.70;;
11171;SDS011;5642;50.830;12.082;2023-05-18T06:55:09;1.05;;;0.57;;
11171;SDS011;5642;50.830;12.082;2023-05-18T06:57:36;0.90;;;0.75;;
11171;SDS011;5642;50.830;12.082;2023-05-18T07:00:02;1.65;;;0.77;;
11171;SDS011;5642;50.830;12.082;2023-05-18T07:30:08;0.70;;;0.70;;
11171;SDS011;5642;50.830;12.082;2023-05-18T07:32:35;0.85;;;0.70;;
11171;SDS011;5642;50.830;12.082;2023-05-18T07:35:02;0.80;;;0.55;;
11171;SDS011;5642;50.830;12.082;2023-05-18T07:37:28;1.80;;;0.80;;
11171;SDS011;5642;50.830;12.082;2023-05-18T07:39:54;1.45;;;0.80;;
11171;SDS011;5642;50.830;12.082;2023-05-18T07:42:20;0.88;;;0.75;;
11171;SDS011;5642;50.830;12.082;2023-05-18T07:44:46;1.33;;;0.80;;
11171;SDS011;5642;50.830;12.082;2023-05-18T07:47:12;0.77;;;0.70;;
11171;SDS011;5642;50.830;12.082;2023-05-18T07:49:38;1.70;;;0.80;;
11171;SDS011;5642;50.830;12.082;2023-05-18T07:52:07;0.85;;;0.85;;
11171;SDS011;5642;50.830;12.082;2023-05-18T07:54:33;0.93;;;0.70;;
11171;SDS011;5642;50.830;12.082;2023-05-18T07:57:00;1.27;;;0.98;;
11171;SDS011;5642;50.830;12.082;2023-05-18T07:59:26;1.80;;;1.00;;
11171;SDS011;5642;50.830;12.082;2023-05-18T09:02:59;1.52;;;0.73;;
11171;SDS011;5642;50.830;12.082;2023-05-18T09:05:25;1.08;;;0.80;;
11171;SDS011;5642;50.830;12.082;2023-05-18T09:07:51;0.77;;;0.77;;
11171;SDS011;5642;50.830;12.082;2023-05-18T09:10:19;1.02;;;0.70;;
11171;SDS011;5642;50.830;12.082;2023-05-18T09:12:47;1.15;;;0.70;;
11171;SDS011;5642;50.830;12.082;2023-05-18T09:15:15;1.83;;;0.98;;
11171;SDS011;5642;50.830;12.082;2023-05-18T09:17:42;1.17;;;0.80;;
11171;SDS011;5642;50.830;12.082;2023-05-18T09:20:09;0.95;;;0.70;;
11171;SDS011;5642;50.830;12.082;2023-05-18T09:22:35;1.55;;;0.90;;
11171;SDS011;5642;50.830;12.082;2023-05-18T09:25:02;0.88;;;0.70;;
11171;SDS011;5642;50.830;12.082;2023-05-18T09:27:29;0.90;;;0.70;;
11171;SDS011;5642;50.830;12.082;2023-05-18T09:29:56;0.77;;;0.60;;
11171;SDS011;5642;50.830;12.082;2023-05-18T09:32:23;1.30;;;0.82;;
11171;SDS011;5642;50.830;12.082;2023-05-18T09:34:50;0.77;;;0.60;;
11171;SDS011;5642;50.830;12.082;2023-05-18T09:37:18;0.70;;;0.70;;
11171;SDS011;5642;50.830;12.082;2023-05-18T09:39:45;1.33;;;0.70;;
11171;SDS011;5642;50.830;12.082;2023-05-18T09:42:31;0.70;;;0.70;;
11171;SDS011;5642;50.830;12.082;2023-05-18T09:45:02;0.80;;;0.70;;
11171;SDS011;5642;50.830;12.082;2023-05-18T09:47:29;0.95;;;0.70;;
11171;SDS011;5642;50.830;12.082;2023-05-18T09:49:55;1.20;;;0.70;;
11171;SDS011;5642;50.830;12.082;2023-05-18T09:52:23;0.93;;;0.80;;
11171;SDS011;5642;50.830;12.082;2023-05-18T09:54:57;1.08;;;0.93;;
11171;SDS011;5642;50.830;12.082;2023-05-18T09:57:27;0.90;;;0.73;;
11171;SDS011;5642;50.830;12.082;2023-05-18T09:59:56;0.50;;;0.50;;
11171;SDS011;5642;50.830;12.082;2023-05-18T10:02:31;0.55;;;0.43;;
11171;SDS011;5642;50.830;12.082;2023-05-18T10:04:58;1.52;;;0.90;;
11171;SDS011;5642;50.830;12.082;2023-05-18T10:07:24;0.80;;;0.80;;
11171;SDS011;5642;50.830;12.082;2023-05-18T10:09:59;0.95;;;0.70;;
11171;SDS011;5642;50.830;12.082;2023-05-18T10:12:28;1.92;;;0.88;;
11171;SDS011;5642;50.830;12.082;2023-05-18T10:14:57;1.20;;;0.80;;
11171;SDS011;5642;50.830;12.082;2023-05-18T10:17:23;1.45;;;0.73;;
11171;SDS011;5642;50.830;12.082;2023-05-18T10:19:51;0.50;;;0.50;;
11171;SDS011;5642;50.830;12.082;2023-05-18T10:22:21;0.93;;;0.63;;
11171;SDS011;5642;50.830;12.082;2023-05-18T10:24:50;1.20;;;0.55;;
11171;SDS011;5642;50.830;12.082;2023-05-18T10:27:22;1.02;;;0.70;;
11171;SDS011;5642;50.830;12.082;2023-05-18T10:29:51;0.60;;;0.60;;
11171;SDS011;5642;50.830;12.082;2023-05-18T10:32:19;3.45;;;0.82;;
11171;SDS011;5642;50.830;12.082;2023-05-18T10:34:48;0.90;;;0.65;;
11171;SDS011;5642;50.830;12.082;2023-05-18T10:37:23;1.02;;;0.60;;
11171;SDS011;5642;50.830;12.082;2023-05-18T10:39:57;0.93;;;0.60;;
11171;SDS011;5642;50.830;12.082;2023-05-18T10:42:25;1.02;;;0.50;;
11171;SDS011;5642;50.830;12.082;2023-05-18T10:44:54;0.63;;;0.60;;
11171;SDS011;5642;50.830;12.082;2023-05-18T10:47:27;0.77;;;0.60;;
11171;SDS011;5642;50.830;12.082;2023-05-18T10:49:53;0.73;;;0.60;;
11171;SDS011;5642;50.830;12.082;2023-05-18T10:52:19;0.85;;;0.68;;
11171;SDS011;5642;50.830;12.082;2023-05-18T10:54:46;0.65;;;0.55;;
11171;SDS011;5642;50.830;12.082;2023-05-18T10:57:13;1.27;;;0.70;;
11171;SDS011;5642;50.830;12.082;2023-05-18T10:59:44;0.95;;;0.60;;
11171;SDS011;5642;50.830;12.082;2023-05-18T11:02:16;0.60;;;0.60;;
11171;SDS011;5642;50.830;12.082;2023-05-18T11:04:44;0.90;;;0.90;;
11171;SDS011;5642;50.830;12.082;2023-05-18T11:07:13;1.25;;;0.73;;
11171;SDS011;5642;50.830;12.082;2023-05-18T11:09:41;0.70;;;0.70;;
11171;SDS011;5642;50.830;12.082;2023-05-18T11:12:12;1.10;;;0.63;;
11171;SDS011;5642;50.830;12.082;2023-05-18T11:14:46;1.58;;;0.77;;
11171;SDS011;5642;50.830;12.082;2023-05-18T11:17:28;1.02;;;0.70;;
11171;SDS011;5642;50.830;12.082;2023-05-18T11:28:01;1.75;;;0.60;;
11171;SDS011;5642;50.830;12.082;2023-05-18T11:33:32;1.48;;;0.73;;
11171;SDS011;5642;50.830;12.082;2023-05-18T11:35:56;1.13;;;0.80;;
11171;SDS011;5642;50.830;12.082;2023-05-18T11:38:44;1.33;;;0.52;;
11171;SDS011;5642;50.830;12.082;2023-05-18T11:44:03;1.17;;;0.50;;
11171;SDS011;5642;50.830;12.082;2023-05-18T11:46:35;1.27;;;0.70;;
11171;SDS011;5642;50.830;12.082;2023-05-18T11:49:08;0.88;;;0.70;;
11171;SDS011;5642;50.830;12.082;2023-05-18T11:54:24;0.70;;;0.43;;
11171;SDS011;5642;50.830;12.082;2023-05-18T11:56:51;1.10;;;0.80;;
11171;SDS011;5642;50.830;12.082;2023-05-18T11:59:28;0.63;;;0.50;;
11171;SDS011;5642;50.830;12.082;2023-05-18T12:01:59;0.52;;;0.52;;
11171;SDS011;5642;50.830;12.082;2023-05-18T12:04:26;0.50;;;0.50;;
11171;SDS011;5642;50.830;12.082;2023-05-18T12:06:54;0.75;;;0.75;;
11171;SDS011;5642;50.830;12.082;2023-05-18T12:09:21;0.57;;;0.47;;
11171;SDS011;5642;50.830;12.082;2023-05-18T12:11:49;1.50;;;0.80;;
11171;SDS011;5642;50.830;12.082;2023-05-18T12:14:17;0.95;;;0.85;;
11171;SDS011;5642;50.830;12.082;2023-05-18T12:16:45;1.05;;;0.80;;
11171;SDS011;5642;50.830;12.082;2023-05-18T12:19:12;1.20;;;0.90;;
11171;SDS011;5642;50.830;12.082;2023-05-18T12:21:38;1.10;;;0.88;;
11171;SDS011;5642;50.830;12.082;2023-05-18T12:24:05;0.70;;;0.70;;
11171;SDS011;5642;50.830;12.082;2023-05-18T12:26:31;0.60;;;0.60;;
11171;SDS011;5642;50.830;12.082;2023-05-18T12:29:00;0.80;;;0.60;;
11171;SDS011;5642;50.830;12.082;2023-05-18T12:31:28;1.67;;;0.65;;
11171;SDS011;5642;50.830;12.082;2023-05-18T12:33:55;0.68;;;0.60;;
11171;SDS011;5642;50.830;12.082;2023-05-18T12:36:21;0.77;;;0.70;;
11171;SDS011;5642;50.830;12.082;2023-05-18T12:38:49;2.22;;;0.60;;
11171;SDS011;5642;50.830;12.082;2023-05-18T12:41:24;0.60;;;0.60;;
11171;SDS011;5642;50.830;12.082;2023-05-18T12:43:54;1.67;;;0.47;;
11171;SDS011;5642;50.830;12.082;2023-05-18T12:46:21;0.50;;;0.50;;
11171;SDS011;5642;50.830;12.082;2023-05-18T12:48:56;0.57;;;0.57;;
11171;SDS011;5642;50.830;12.082;2023-05-18T12:51:24;0.85;;;0.60;;
11171;SDS011;5642;50.830;12.082;2023-05-18T12:53:56;0.77;;;0.60;;
11171;SDS011;5642;50.830;12.082;2023-05-18T12:56:25;0.80;;;0.60;;
11171;SDS011;5642;50.830;12.082;2023-05-18T12:58:55;1.48;;;0.90;;
11171;SDS011;5642;50.830;12.082;2023-05-18T13:01:39;0.82;;;0.68;;
11171;SDS011;5642;50.830;12.082;2023-05-18T18:05:32;1.42;;;0.80;;
11171;SDS011;5642;50.830;12.082;2023-05-18T18:07:59;1.23;;;0.77;;
11171;SDS011;5642;50.830;12.082;2023-05-18T18:10:26;1.15;;;0.85;;
11171;SDS011;5642;50.830;12.082;2023-05-18T18:12:53;1.67;;;0.85;;
11171;SDS011;5642;50.830;12.082;2023-05-18T18:15:23;0.60;;;0.60;;
11171;SDS011;5642;50.830;12.082;2023-05-18T18:17:53;0.85;;;0.73;;
11171;SDS011;5642;50.830;12.082;2023-05-18T18:20:20;1.77;;;1.00;;
11171;SDS011;5642;50.830;12.082;2023-05-18T18:22:47;1.08;;;0.90;;
11171;SDS011;5642;50.830;12.082;2023-05-18T18:25:13;1.27;;;0.90;;
11171;SDS011;5642;50.830;12.082;2023-05-18T18:27:39;0.70;;;0.70;;
11171;SDS011;5642;50.830;12.082;2023-05-18T18:30:05;1.05;;;0.70;;
11171;SDS011;5642;50.830;12.082;2023-05-18T18:32:32;0.98;;;0.80;;
11171;SDS011;5642;50.830;12.082;2023-05-18T18:35:01;1.63;;;0.90;;
11171;SDS011;5642;50.830;12.082;2023-05-18T18:37:27;1.00;;;0.90;;
11171;SDS011;5642;50.830;12.082;2023-05-18T18:39:53;0.73;;;0.73;;
11171;SDS011;5642;50.830;12.082;2023-05-18T18:42:21;1.52;;;0.80;;
11171;SDS011;5642;50.830;12.082;2023-05-18T18:44:47;1.05;;;0.80;;
11171;SDS011;5642;50.830;12.082;2023-05-18T18:47:13;1.52;;;1.20;;
11171;SDS011;5642;50.830;12.082;2023-05-18T18:49:39;1.48;;;0.90;;
11171;SDS011;5642;50.830;12.082;2023-05-18T18:52:05;1.10;;;1.00;;
11171;SDS011;5642;50.830;12.082;2023-05-18T18:54:31;1.00;;;0.90;;
11171;SDS011;5642;50.830;12.082;2023-05-18T18:56:57;1.13;;;1.00;;
11171;SDS011;5642;50.830;12.082;2023-05-18T18:59:26;1.50;;;1.27;;
11171;SDS011;5642;50.830;12.082;2023-05-18T19:01:52;1.88;;;1.30;;
11171;SDS011;5642;50.830;12.082;2023-05-18T19:04:19;1.90;;;1.45;;
11171;SDS011;5642;50.830;12.082;2023-05-18T19:06:45;1.83;;;1.30;;
11171;SDS011;5642;50.830;12.082;2023-05-18T19:09:16;1.73;;;1.40;;
11171;SDS011;5642;50.830;12.082;2023-05-18T19:11:43;2.97;;;1.75;;
11171;SDS011;5642;50.830;12.082;2023-05-18T19:14:09;2.08;;;1.90;;
11171;SDS011;5642;50.830;12.082;2023-05-18T19:16:36;1.95;;;1.70;;
11171;SDS011;5642;50.830;12.082;2023-05-18T19:19:08;1.60;;;1.50;;
11171;SDS011;5642;50.830;12.082;2023-05-18T19:21:34;3.63;;;1.70;;
11171;SDS011;5642;50.830;12.082;2023-05-18T19:24:06;1.70;;;1.60;;
11171;SDS011;5642;50.830;12.082;2023-05-18T19:26:37;2.85;;;1.80;;
11171;SDS011;5642;50.830;12.082;2023-05-18T19:29:08;2.15;;;1.70;;
11171;SDS011;5642;50.830;12.082;2023-05-18T19:31:34;2.10;;;1.73;;
11171;SDS011;5642;50.830;12.082;2023-05-18T19:34:02;1.98;;;1.60;;
11171;SDS011;5642;50.830;12.082;2023-05-18T19:36:29;3.17;;;1.75;;
11171;SDS011;5642;50.830;12.082;2023-05-18T19:38:57;2.92;;;1.58;;
11171;SDS011;5642;50.830;12.082;2023-05-18T19:41:23;1.75;;;1.58;;
11171;SDS011;5642;50.830;12.082;2023-05-18T19:43:53;2.20;;;1.58;;
11171;SDS011;5642;50.830;12.082;2023-05-18T19:46:20;2.92;;;1.85;;
11171;SDS011;5642;50.830;12.082;2023-05-18T19:48:47;2.00;;;1.58;;
11171;SDS011;5642;50.830;12.082;2023-05-18T19:51:13;2.70;;;1.70;;
11171;SDS011;5642;50.830;12.082;2023-05-18T19:53:39;2.15;;;1.88;;
11171;SDS011;5642;50.830;12.082;2023-05-18T19:56:07;2.95;;;2.28;;
11171;SDS011;5642;50.830;12.082;2023-05-18T19:58:33;3.05;;;2.40;;
11171;SDS011;5642;50.830;12.082;2023-05-18T20:00:59;2.67;;;2.40;;
11171;SDS011;5642;50.830;12.082;2023-05-18T20:03:26;3.20;;;2.55;;
11171;SDS011;5642;50.830;12.082;2023-05-18T20:05:53;2.42;;;2.17;;
11171;SDS011;5642;50.830;12.082;2023-05-18T20:08:20;2.70;;;2.17;;
11171;SDS011;5642;50.830;12.082;2023-05-18T20:10:46;3.22;;;2.25;;
11171;SDS011;5642;50.830;12.082;2023-05-18T20:13:13;2.22;;;1.90;;
11171;SDS011;5642;50.830;12.082;2023-05-18T20:15:39;3.05;;;2.00;;
11171;SDS011;5642;50.830;12.082;2023-05-18T20:18:05;2.65;;;1.90;;
11171;SDS011;5642;50.830;12.082;2023-05-18T20:20:33;2.20;;;1.63;;
11171;SDS011;5642;50.830;12.082;2023-05-18T20:23:00;1.92;;;1.70;;
11171;SDS011;5642;50.830;12.082;2023-05-18T20:25:26;1.90;;;1.45;;
11171;SDS011;5642;50.830;12.082;2023-05-18T20:27:52;2.67;;;2.17;;
11171;SDS011;5642;50.830;12.082;2023-05-18T20:30:21;2.08;;;1.80;;
11171;SDS011;5642;50.830;12.082;2023-05-18T20:32:47;2.58;;;2.10;;
11171;SDS011;5642;50.830;12.082;2023-05-18T20:35:14;2.95;;;1.83;;
11171;SDS011;5642;50.830;12.082;2023-05-18T20:37:41;3.60;;;2.00;;
11171;SDS011;5642;50.830;12.082;2023-05-18T20:40:08;3.60;;;2.60;;
11171;SDS011;5642;50.830;12.082;2023-05-18T20:42:36;2.63;;;2.40;;
11171;SDS011;5642;50.830;12.082;2023-05-18T20:45:05;2.42;;;2.22;;
11171;SDS011;5642;50.830;12.082;2023-05-18T20:47:32;3.22;;;2.30;;
11171;SDS011;5642;50.830;12.082;2023-05-18T20:50:00;2.88;;;2.20;;
11171;SDS011;5642;50.830;12.082;2023-05-18T20:52:30;3.85;;;2.63;;
11171;SDS011;5642;50.830;12.082;2023-05-18T20:54:56;2.85;;;2.40;;
11171;SDS011;5642;50.830;12.082;2023-05-18T20:57:22;3.35;;;2.80;;
11171;SDS011;5642;50.830;12.082;2023-05-18T20:59:50;3.45;;;2.80;;
11171;SDS011;5642;50.830;12.082;2023-05-18T21:02:21;2.88;;;2.40;;
11171;SDS011;5642;50.830;12.082;2023-05-18T21:04:46;3.95;;;2.40;;
11171;SDS011;5642;50.830;12.082;2023-05-18T21:07:13;2.30;;;2.03;;
11171;SDS011;5642;50.830;12.082;2023-05-18T21:09:44;2.60;;;2.30;;
11171;SDS011;5642;50.830;12.082;2023-05-18T21:12:10;2.25;;;1.80;;
11171;SDS011;5642;50.830;12.082;2023-05-18T21:14:40;2.20;;;1.90;;
11171;SDS011;5642;50.830;12.082;2023-05-18T21:17:09;2.53;;;2.03;;
11171;SDS011;5642;50.830;12.082;2023-05-18T21:19:38;4.00;;;2.08;;
11171;SDS011;5642;50.830;12.082;2023-05-18T21:22:09;3.75;;;2.50;;
11171;SDS011;5642;50.830;12.082;2023-05-18T21:24:35;2.42;;;2.15;;
11171;SDS011;5642;50.830;12.082;2023-05-18T21:27:03;1.92;;;1.73;;
11171;SDS011;5642;50.830;12.082;2023-05-18T21:29:36;3.00;;;2.10;;
11171;SDS011;5642;50.830;12.082;2023-05-18T21:32:08;2.40;;;1.90;;
11171;SDS011;5642;50.830;12.082;2023-05-18T21:34:39;2.30;;;1.73;;
11171;SDS011;5642;50.830;12.082;2023-05-18T21:37:10;2.25;;;1.70;;
11171;SDS011;5642;50.830;12.082;2023-05-18T21:39:40;1.98;;;1.80;;
11171;SDS011;5642;50.830;12.082;2023-05-18T21:42:10;1.73;;;1.48;;
11171;SDS011;5642;50.830;12.082;2023-05-18T21:44:44;1.63;;;1.50;;
11171;SDS011;5642;50.830;12.082;2023-05-18T21:47:13;2.05;;;1.45;;
11171;SDS011;5642;50.830;12.082;2023-05-18T21:49:41;1.70;;;1.30;;
11171;SDS011;5642;50.830;12.082;2023-05-18T21:52:08;1.30;;;1.20;;
11171;SDS011;5642;50.830;12.082;2023-05-18T21:54:37;2.00;;;1.40;;
11171;SDS011;5642;50.830;12.082;2023-05-18T21:57:03;2.15;;;1.30;;
11171;SDS011;5642;50.830;12.082;2023-05-18T21:59:30;1.40;;;1.30;;
11171;SDS011;5642;50.830;12.082;2023-05-18T22:01:56;1.50;;;1.40;;
11171;SDS011;5642;50.830;12.082;2023-05-18T22:04:31;1.80;;;1.50;;
11171;SDS011;5642;50.830;12.082;2023-05-18T22:06:57;1.35;;;1.25;;
11171;SDS011;5642;50.830;12.082;2023-05-18T22:09:25;1.83;;;1.52;;
11171;SDS011;5642;50.830;12.082;2023-05-18T22:11:52;1.55;;;1.45;;
11171;SDS011;5642;50.830;12.082;2023-05-18T22:14:19;2.03;;;1.42;;
11171;SDS011;5642;50.830;12.082;2023-05-18T22:16:46;1.58;;;1.48;;
11171;SDS011;5642;50.830;12.082;2023-05-18T22:19:13;2.10;;;1.55;;
11171;SDS011;5642;50.830;12.082;2023-05-18T22:21:39;1.60;;;1.50;;
11171;SDS011;5642;50.830;12.082;2023-05-18T22:24:06;1.60;;;1.48;;
11171;SDS011;5642;50.830;12.082;2023-05-18T22:26:33;1.65;;;1.38;;
11171;SDS011;5642;50.830;12.082;2023-05-18T22:28:59;1.58;;;1.45;;
11171;SDS011;5642;50.830;12.082;2023-05-18T22:31:26;1.77;;;1.60;;
11171;SDS011;5642;50.830;12.082;2023-05-18T22:33:53;1.95;;;1.60;;
11171;SDS011;5642;50.830;12.082;2023-05-18T22:36:20;2.00;;;1.70;;
11171;SDS011;5642;50.830;12.082;2023-05-18T22:38:47;1.75;;;1.38;;
11171;SDS011;5642;50.830;12.082;2023-05-18T22:41:24;1.25;;;1.15;;
11171;SDS011;5642;50.830;12.082;2023-05-18T22:44:08;2.17;;;1.48;;
11171;SDS011;5642;50.830;12.082;2023-05-18T22:46:34;1.33;;;1.23;;
11171;SDS011;5642;50.830;12.082;2023-05-18T22:49:02;1.80;;;1.42;;
11171;SDS011;5642;50.830;12.082;2023-05-18T22:51:30;2.05;;;1.55;;
11171;SDS011;5642;50.830;12.082;2023-05-18T22:53:58;2.38;;;1.50;;
11171;SDS011;5642;50.830;12.082;2023-05-18T22:56:25;1.60;;;1.40;;
11171;SDS011;5642;50.830;12.082;2023-05-18T22:58:52;1.90;;;1.42;;
11171;SDS011;5642;50.830;12.082;2023-05-18T23:01:30;2.20;;;1.60;;
11171;SDS011;5642;50.830;12.082;2023-05-18T23:03:55;1.33;;;1.23;;
11171;SDS011;5642;50.830;12.082;2023-05-18T23:06:22;1.85;;;1.52;;
11171;SDS011;5642;50.830;12.082;2023-05-18T23:08:49;1.48;;;1.38;;
11171;SDS011;5642;50.830;12.082;2023-05-18T23:11:21;1.40;;;1.30;;
11171;SDS011;5642;50.830;12.082;2023-05-18T23:13:47;1.50;;;1.33;;
11171;SDS011;5642;50.830;12.082;2023-05-18T23:16:15;1.48;;;1.30;;
11171;SDS011;5642;50.830;12.082;2023-05-18T23:18:43;1.35;;;1.25;;
11171;SDS011;5642;50.830;12.082;2023-05-18T23:21:11;1.38;;;1.27;;
11171;SDS011;5642;50.830;12.082;2023-05-18T23:23:39;1.58;;;1.40;;
11171;SDS011;5642;50.830;12.082;2023-05-18T23:26:07;1.55;;;1.45;;
11171;SDS011;5642;50.830;12.082;2023-05-18T23:28:36;2.83;;;1.50;;
11171;SDS011;5642;50.830;12.082;2023-05-18T23:31:02;2.25;;;1.30;;
11171;SDS011;5642;50.830;12.082;2023-05-18T23:33:29;1.73;;;1.40;;
11171;SDS011;5642;50.830;12.082;2023-05-18T23:35:57;1.50;;;1.40;;
11171;SDS011;5642;50.830;12.082;2023-05-18T23:38:32;1.52;;;1.42;;
11171;SDS011;5642;50.830;12.082;2023-05-18T23:41:02;1.55;;;1.25;;
11171;SDS011;5642;50.830;12.082;2023-05-18T23:43:30;1.50;;;1.40;;
11171;SDS011;5642;50.830;12.082;2023-05-18T23:45:56;1.30;;;1.20;;
11171;SDS011;5642;50.830;12.082;2023-05-18T23:48:26;1.40;;;1.30;;
11171;SDS011;5642;50.830;12.082;2023-05-18T23:50:56;1.30;;;1.20;;
11171;SDS011;5642;50.830;12.082;2023-05-18T23:53:24;1.40;;;1.30;;
11171;SDS011;5642;50.830;12.082;2023-05-18T23:55:53;1.27;;;1.17;;